Forside
METAR-TAF:

METAR-TAF

Lufthavne :

Kristianstad, Sverige

Breddekreds: 55-55N, længdekreds: 014-05E, højde: 23 m

Aktuelle vejr

Denne rapport blev lavet for 17 minutter siden, kl. 01:20 UTC
Vind 7 kt fra vest
Temperatur 11°C
Fugtighed 100%
Tryk 1019 hPa
Sigt 10 km eller mere

METAR: ESMK 130120Z AUTO 26007KT 9999 FEW006/// SCT008/// OVC011/// 11/11 Q1019

Tid: 03:37 (01:37 UTC)

Vejrudsigter

Denne rapport blev lavet for 14 timer og 22 minutter siden, kl. 11:15 UTC
Foreløbig gælder fra 12 på 12 UTC til 12 på 15 UTC
Vind 10 kt fra sydvest
Sigt 10 km eller mere
Nogle få skyer i en højde af 800 ft
Spredte skyer i en højde af 2000 ft
Midlertidig
fra 12 på 12 UTC til 12 på 15 UTC
Sigt: 4000 m
Brudte skyer i en højde af 800 ft
let regn, finregn, dis,

TAF: ESMK 121115Z 1212/1215 22010KT 9999 FEW008 SCT020 TEMPO 1212/1215 4000 -RADZ BR BKN008

Vejrobservationer og prognoser fra mere end 4000 lufthavne (METAR og TAF).

De gule og røde prikker repræsenterer de meteorologiske stationer.

Flyt musen over at se navnet på stationen.

Så klik over at se vejr observationer og prognoser.

At skifte det kort: Klik på de grønne knapper med et sort kors for at zoome ind; på den grønne knap med en bindestreg for at zoome ud; eller på de grønne pile for tilstødende kort.


METAR-TAF: